sensor_id;sensor_type;location;lat;lon;timestamp;pressure;altitude;pressure_sealevel;temperature;humidity
65758;BME280;52495;52.208;5.158;2022-10-14T00:00:54;101530.63;;;10.29;91.34
65758;BME280;52495;52.208;5.158;2022-10-14T00:03:26;101530.63;;;10.25;91.66
65758;BME280;52495;52.208;5.158;2022-10-14T00:05:53;101524.63;;;10.20;91.61
65758;BME280;52495;52.208;5.158;2022-10-14T00:08:19;101520.31;;;10.17;92.30
65758;BME280;52495;52.208;5.158;2022-10-14T00:10:45;101525.53;;;10.14;92.51
65758;BME280;52495;52.208;5.158;2022-10-14T00:13:12;101526.41;;;10.13;92.44
65758;BME280;52495;52.208;5.158;2022-10-14T00:15:39;101530.69;;;10.14;92.55
65758;BME280;52495;52.208;5.158;2022-10-14T00:18:07;101532.41;;;10.15;92.19
65758;BME280;52495;52.208;5.158;2022-10-14T00:20:34;101528.13;;;10.11;92.10
65758;BME280;52495;52.208;5.158;2022-10-14T00:23:01;101517.78;;;10.11;91.81
65758;BME280;52495;52.208;5.158;2022-10-14T00:25:27;101516.94;;;10.06;91.48
65758;BME280;52495;52.208;5.158;2022-10-14T00:27:54;101508.38;;;10.05;92.16
65758;BME280;52495;52.208;5.158;2022-10-14T00:30:20;101502.31;;;10.08;92.29
65758;BME280;52495;52.208;5.158;2022-10-14T00:32:47;101503.16;;;10.08;91.72
65758;BME280;52495;52.208;5.158;2022-10-14T00:35:16;101499.75;;;10.08;92.55
65758;BME280;52495;52.208;5.158;2022-10-14T00:37:42;101493.72;;;10.09;92.44
65758;BME280;52495;52.208;5.158;2022-10-14T00:40:09;101497.13;;;10.09;92.70
65758;BME280;52495;52.208;5.158;2022-10-14T00:42:36;101496.28;;;10.10;92.46
65758;BME280;52495;52.208;5.158;2022-10-14T00:45:04;101496.28;;;10.13;92.62
65758;BME280;52495;52.208;5.158;2022-10-14T00:47:33;101496.28;;;10.10;92.33
65758;BME280;52495;52.208;5.158;2022-10-14T00:50:01;101485.97;;;10.09;92.52
65758;BME280;52495;52.208;5.158;2022-10-14T00:52:30;101479.94;;;10.10;93.07
65758;BME280;52495;52.208;5.158;2022-10-14T00:54:57;101475.69;;;10.07;92.57
65758;BME280;52495;52.208;5.158;2022-10-14T00:57:25;101465.38;;;10.04;92.51
65758;BME280;52495;52.208;5.158;2022-10-14T00:59:53;101455.88;;;10.05;93.38
65758;BME280;52495;52.208;5.158;2022-10-14T01:02:22;101454.19;;;9.99;93.09
65758;BME280;52495;52.208;5.158;2022-10-14T01:04:48;101449.88;;;9.99;93.75
65758;BME280;52495;52.208;5.158;2022-10-14T01:07:18;101436.13;;;10.02;93.64
65758;BME280;52495;52.208;5.158;2022-10-14T01:09:54;101431.81;;;9.99;94.00
65758;BME280;52495;52.208;5.158;2022-10-14T01:12:39;101426.69;;;10.01;93.91
65758;BME280;52495;52.208;5.158;2022-10-14T01:15:10;101422.41;;;9.97;93.58
65758;BME280;52495;52.208;5.158;2022-10-14T01:17:42;101419.78;;;10.05;94.17
65758;BME280;52495;52.208;5.158;2022-10-14T01:20:30;101418.06;;;10.05;93.67
65758;BME280;52495;52.208;5.158;2022-10-14T01:23:06;101423.13;;;10.21;92.74
65758;BME280;52495;52.208;5.158;2022-10-14T01:25:40;101429.19;;;10.13;93.33
65758;BME280;52495;52.208;5.158;2022-10-14T01:28:14;101436.06;;;10.16;94.18
65758;BME280;52495;52.208;5.158;2022-10-14T01:30:44;101448.94;;;10.17;93.93
65758;BME280;52495;52.208;5.158;2022-10-14T01:33:12;101440.34;;;10.17;93.65
65758;BME280;52495;52.208;5.158;2022-10-14T01:38:26;101438.66;;;10.13;93.00
65758;BME280;52495;52.208;5.158;2022-10-14T01:40:57;101449.81;;;10.13;93.11
65758;BME280;52495;52.208;5.158;2022-10-14T01:43:26;101444.66;;;10.13;92.94
65758;BME280;52495;52.208;5.158;2022-10-14T01:45:55;101457.56;;;10.10;93.39
65758;BME280;52495;52.208;5.158;2022-10-14T01:48:23;101450.72;;;10.11;94.35
65758;BME280;52495;52.208;5.158;2022-10-14T01:50:52;101458.44;;;10.14;93.64
65758;BME280;52495;52.208;5.158;2022-10-14T01:53:22;101459.28;;;10.16;93.95
65758;BME280;52495;52.208;5.158;2022-10-14T01:55:50;101454.94;;;10.18;94.04
65758;BME280;52495;52.208;5.158;2022-10-14T01:58:18;101449.78;;;10.18;93.70
65758;BME280;52495;52.208;5.158;2022-10-14T02:00:46;101455.00;;;10.15;93.69
65758;BME280;52495;52.208;5.158;2022-10-14T02:03:14;101443.81;;;10.16;94.05
65758;BME280;52495;52.208;5.158;2022-10-14T02:05:42;101439.47;;;10.18;93.86
65758;BME280;52495;52.208;5.158;2022-10-14T02:08:12;101432.59;;;10.18;93.96
65758;BME280;52495;52.208;5.158;2022-10-14T02:13:29;101421.38;;;10.24;94.58
65758;BME280;52495;52.208;5.158;2022-10-14T02:16:05;101417.88;;;10.33;93.84
65758;BME280;52495;52.208;5.158;2022-10-14T02:18:37;101423.94;;;10.30;93.78
65758;BME280;52495;52.208;5.158;2022-10-14T02:21:07;101427.34;;;10.31;94.21
65758;BME280;52495;52.208;5.158;2022-10-14T02:23:37;101433.34;;;10.36;94.67
65758;BME280;52495;52.208;5.158;2022-10-14T02:26:06;101434.22;;;10.41;94.51
65758;BME280;52495;52.208;5.158;2022-10-14T02:28:33;101434.19;;;10.43;94.44
65758;BME280;52495;52.208;5.158;2022-10-14T02:31:02;101417.84;;;10.44;94.62
65758;BME280;52495;52.208;5.158;2022-10-14T02:33:30;101414.41;;;10.45;94.48
65758;BME280;52495;52.208;5.158;2022-10-14T02:36:00;101406.63;;;10.46;94.88
65758;BME280;52495;52.208;5.158;2022-10-14T02:38:28;101402.31;;;10.50;94.53
65758;BME280;52495;52.208;5.158;2022-10-14T02:40:55;101403.13;;;10.52;94.90
65758;BME280;52495;52.208;5.158;2022-10-14T02:43:22;101384.16;;;10.56;94.33
65758;BME280;52495;52.208;5.158;2022-10-14T02:45:54;101379.88;;;10.57;94.43
65758;BME280;52495;52.208;5.158;2022-10-14T02:48:22;101385.06;;;10.54;94.50
65758;BME280;52495;52.208;5.158;2022-10-14T02:50:49;101391.06;;;10.57;95.00
65758;BME280;52495;52.208;5.158;2022-10-14T02:53:17;101390.16;;;10.60;95.12
65758;BME280;52495;52.208;5.158;2022-10-14T02:55:44;101387.56;;;10.60;95.18
65758;BME280;52495;52.208;5.158;2022-10-14T02:58:10;101382.41;;;10.65;94.72
65758;BME280;52495;52.208;5.158;2022-10-14T03:00:37;101383.25;;;10.62;95.67
65758;BME280;52495;52.208;5.158;2022-10-14T03:03:04;101380.66;;;10.67;95.45
65758;BME280;52495;52.208;5.158;2022-10-14T03:05:31;101385.81;;;10.65;95.73
65758;BME280;52495;52.208;5.158;2022-10-14T03:07:57;101380.63;;;10.71;95.05
65758;BME280;52495;52.208;5.158;2022-10-14T03:10:27;101374.59;;;10.68;95.32
65758;BME280;52495;52.208;5.158;2022-10-14T03:12:54;101370.34;;;10.67;95.87
65758;BME280;52495;52.208;5.158;2022-10-14T03:15:32;101370.34;;;10.67;95.57
65758;BME280;52495;52.208;5.158;2022-10-14T03:17:58;101363.44;;;10.67;95.62
65758;BME280;52495;52.208;5.158;2022-10-14T03:20:34;101366.03;;;10.66;95.19
65758;BME280;52495;52.208;5.158;2022-10-14T03:23:02;101366.84;;;10.68;95.37
65758;BME280;52495;52.208;5.158;2022-10-14T03:25:33;101362.59;;;10.65;95.47
65758;BME280;52495;52.208;5.158;2022-10-14T03:28:03;101359.97;;;10.68;95.83
65758;BME280;52495;52.208;5.158;2022-10-14T03:30:50;101356.50;;;10.72;95.64
65758;BME280;52495;52.208;5.158;2022-10-14T03:33:31;101357.38;;;10.71;95.17
65758;BME280;52495;52.208;5.158;2022-10-14T03:36:04;101351.34;;;10.71;94.84
65758;BME280;52495;52.208;5.158;2022-10-14T03:38:42;101357.41;;;10.67;95.37
65758;BME280;52495;52.208;5.158;2022-10-14T03:41:18;101346.16;;;10.75;94.23
65758;BME280;52495;52.208;5.158;2022-10-14T03:43:45;101345.31;;;10.70;95.44
65758;BME280;52495;52.208;5.158;2022-10-14T03:46:12;101338.44;;;10.69;96.11
65758;BME280;52495;52.208;5.158;2022-10-14T03:48:39;101335.81;;;10.74;96.28
65758;BME280;52495;52.208;5.158;2022-10-14T03:51:06;101319.44;;;10.75;96.27
65758;BME280;52495;52.208;5.158;2022-10-14T03:53:34;101320.25;;;10.83;94.95
65758;BME280;52495;52.208;5.158;2022-10-14T03:56:01;101309.91;;;10.82;94.73
65758;BME280;52495;52.208;5.158;2022-10-14T03:58:29;101309.94;;;10.80;95.33
65758;BME280;52495;52.208;5.158;2022-10-14T04:01:01;101306.44;;;10.84;94.68
65758;BME280;52495;52.208;5.158;2022-10-14T04:03:39;101309.03;;;10.83;95.01
65758;BME280;52495;52.208;5.158;2022-10-14T04:06:06;101309.06;;;10.81;95.47
65758;BME280;52495;52.208;5.158;2022-10-14T04:08:34;101306.44;;;10.84;95.45
65758;BME280;52495;52.208;5.158;2022-10-14T04:11:13;101309.03;;;10.83;96.14
65758;BME280;52495;52.208;5.158;2022-10-14T04:13:42;101302.97;;;10.85;96.25
65758;BME280;52495;52.208;5.158;2022-10-14T04:16:09;101306.38;;;10.92;95.21
65758;BME280;52495;52.208;5.158;2022-10-14T04:18:56;101296.91;;;10.91;96.06
65758;BME280;52495;52.208;5.158;2022-10-14T04:21:23;101302.91;;;10.91;96.43
65758;BME280;52495;52.208;5.158;2022-10-14T04:23:51;101308.94;;;10.92;96.74
65758;BME280;52495;52.208;5.158;2022-10-14T04:26:28;101303.72;;;10.95;96.97
65758;BME280;52495;52.208;5.158;2022-10-14T04:28:58;101305.41;;;10.99;97.00
65758;BME280;52495;52.208;5.158;2022-10-14T04:31:38;101308.81;;;11.03;97.05
65758;BME280;52495;52.208;5.158;2022-10-14T04:34:05;101299.28;;;11.08;96.29
65758;BME280;52495;52.208;5.158;2022-10-14T04:36:36;101292.41;;;11.07;96.66
65758;BME280;52495;52.208;5.158;2022-10-14T04:39:10;101286.34;;;11.08;97.34
65758;BME280;52495;52.208;5.158;2022-10-14T04:41:37;101286.34;;;11.10;97.21
65758;BME280;52495;52.208;5.158;2022-10-14T04:44:05;101283.75;;;11.11;96.99
65758;BME280;52495;52.208;5.158;2022-10-14T04:46:38;101282.81;;;11.17;96.36
65758;BME280;52495;52.208;5.158;2022-10-14T04:49:06;101266.38;;;11.19;95.68
65758;BME280;52495;52.208;5.158;2022-10-14T04:51:38;101271.63;;;11.16;96.81
65758;BME280;52495;52.208;5.158;2022-10-14T04:54:15;101260.34;;;11.20;95.60
65758;BME280;52495;52.208;5.158;2022-10-14T04:56:56;101260.38;;;11.19;96.49
65758;BME280;52495;52.208;5.158;2022-10-14T04:59:24;101252.56;;;11.23;96.18
65758;BME280;52495;52.208;5.158;2022-10-14T05:01:56;101253.44;;;11.22;97.17
65758;BME280;52495;52.208;5.158;2022-10-14T05:04:32;101244.78;;;11.27;97.09
65758;BME280;52495;52.208;5.158;2022-10-14T05:06:59;101236.09;;;11.31;96.17
65758;BME280;52495;52.208;5.158;2022-10-14T05:09:27;101234.34;;;11.33;95.85
65758;BME280;52495;52.208;5.158;2022-10-14T05:11:54;101234.31;;;11.34;95.92
65758;BME280;52495;52.208;5.158;2022-10-14T05:14:31;101235.22;;;11.32;96.85
65758;BME280;52495;52.208;5.158;2022-10-14T05:17:09;101232.59;;;11.35;97.11
65758;BME280;52495;52.208;5.158;2022-10-14T05:19:36;101235.13;;;11.39;96.65
65758;BME280;52495;52.208;5.158;2022-10-14T05:22:02;101217.03;;;11.39;96.26
65758;BME280;52495;52.208;5.158;2022-10-14T05:24:33;101215.16;;;11.48;95.18
65758;BME280;52495;52.208;5.158;2022-10-14T05:27:00;101217.00;;;11.43;96.31
65758;BME280;52495;52.208;5.158;2022-10-14T05:29:28;101213.50;;;11.45;96.01
65758;BME280;52495;52.208;5.158;2022-10-14T05:31:56;101207.44;;;11.45;96.89
65758;BME280;52495;52.208;5.158;2022-10-14T05:34:32;101205.69;;;11.47;97.30
65758;BME280;52495;52.208;5.158;2022-10-14T05:37:00;101208.28;;;11.48;98.04
65758;BME280;52495;52.208;5.158;2022-10-14T05:39:31;101207.31;;;11.54;98.04
65758;BME280;52495;52.208;5.158;2022-10-14T05:41:58;101203.81;;;11.57;97.70
65758;BME280;52495;52.208;5.158;2022-10-14T05:44:27;101203.78;;;11.60;97.64
65758;BME280;52495;52.208;5.158;2022-10-14T05:46:54;101200.31;;;11.61;97.77
65758;BME280;52495;52.208;5.158;2022-10-14T05:49:24;101197.69;;;11.64;96.98
65758;BME280;52495;52.208;5.158;2022-10-14T05:51:54;101189.06;;;11.65;97.15
65758;BME280;52495;52.208;5.158;2022-10-14T05:54:22;101193.34;;;11.64;97.65
65758;BME280;52495;52.208;5.158;2022-10-14T05:56:51;101191.59;;;11.66;97.46
65758;BME280;52495;52.208;5.158;2022-10-14T05:59:20;101188.16;;;11.67;98.28
65758;BME280;52495;52.208;5.158;2022-10-14T06:01:47;101179.47;;;11.70;97.88
65758;BME280;52495;52.208;5.158;2022-10-14T06:04:15;101186.34;;;11.73;97.61
65758;BME280;52495;52.208;5.158;2022-10-14T06:06:43;101189.75;;;11.75;97.88
65758;BME280;52495;52.208;5.158;2022-10-14T06:09:09;101185.44;;;11.75;98.37
65758;BME280;52495;52.208;5.158;2022-10-14T06:11:36;101184.50;;;11.79;97.83
65758;BME280;52495;52.208;5.158;2022-10-14T06:14:02;101176.75;;;11.79;98.40
65758;BME280;52495;52.208;5.158;2022-10-14T06:16:29;101177.59;;;11.80;98.61
65758;BME280;52495;52.208;5.158;2022-10-14T06:18:56;101166.34;;;11.81;98.96
65758;BME280;52495;52.208;5.158;2022-10-14T06:21:22;101164.59;;;11.83;98.61
65758;BME280;52495;52.208;5.158;2022-10-14T06:23:50;101157.72;;;11.83;99.26
65758;BME280;52495;52.208;5.158;2022-10-14T06:26:17;101169.72;;;11.86;99.07
65758;BME280;52495;52.208;5.158;2022-10-14T06:28:43;101162.81;;;11.88;98.99
65758;BME280;52495;52.208;5.158;2022-10-14T06:31:10;101161.91;;;11.89;99.19
65758;BME280;52495;52.208;5.158;2022-10-14T06:33:37;101161.88;;;11.92;98.90
65758;BME280;52495;52.208;5.158;2022-10-14T06:36:04;101160.06;;;11.96;98.81
65758;BME280;52495;52.208;5.158;2022-10-14T06:38:31;101161.78;;;11.97;99.42
65758;BME280;52495;52.208;5.158;2022-10-14T06:40:59;101164.31;;;12.02;98.71
65758;BME280;52495;52.208;5.158;2022-10-14T06:43:26;101160.84;;;12.03;99.31
65758;BME280;52495;52.208;5.158;2022-10-14T06:45:55;101165.97;;;12.06;100.00
65758;BME280;52495;52.208;5.158;2022-10-14T06:48:21;101153.84;;;12.08;99.71
65758;BME280;52495;52.208;5.158;2022-10-14T06:50:48;101162.41;;;12.11;99.79
65758;BME280;52495;52.208;5.158;2022-10-14T06:53:15;101154.59;;;12.13;99.65
65758;BME280;52495;52.208;5.158;2022-10-14T06:55:41;101154.59;;;12.14;99.95
65758;BME280;52495;52.208;5.158;2022-10-14T06:58:09;101154.53;;;12.18;99.17
65758;BME280;52495;52.208;5.158;2022-10-14T07:00:36;101154.50;;;12.21;99.96
65758;BME280;52495;52.208;5.158;2022-10-14T07:03:02;101147.50;;;12.24;100.00
65758;BME280;52495;52.208;5.158;2022-10-14T07:05:29;101148.34;;;12.26;100.00
65758;BME280;52495;52.208;5.158;2022-10-14T07:07:55;101138.75;;;12.30;100.00
65758;BME280;52495;52.208;5.158;2022-10-14T07:10:22;101136.97;;;12.34;99.64
65758;BME280;52495;52.208;5.158;2022-10-14T07:12:51;101133.50;;;12.35;100.00
65758;BME280;52495;52.208;5.158;2022-10-14T07:15:19;101136.06;;;12.36;100.00
65758;BME280;52495;52.208;5.158;2022-10-14T07:17:46;101128.22;;;12.39;100.00
65758;BME280;52495;52.208;5.158;2022-10-14T07:20:13;101129.91;;;12.42;100.00
65758;BME280;52495;52.208;5.158;2022-10-14T07:22:39;101134.09;;;12.48;100.00
65758;BME280;52495;52.208;5.158;2022-10-14T07:25:06;101135.75;;;12.50;100.00
65758;BME280;52495;52.208;5.158;2022-10-14T07:27:33;101128.00;;;12.52;100.00
65758;BME280;52495;52.208;5.158;2022-10-14T07:30:00;101131.34;;;12.55;100.00
65758;BME280;52495;52.208;5.158;2022-10-14T07:32:28;101132.13;;;12.59;100.00
65758;BME280;52495;52.208;5.158;2022-10-14T07:34:54;101119.13;;;12.64;100.00
65758;BME280;52495;52.208;5.158;2022-10-14T07:37:21;101121.59;;;12.67;100.00
65758;BME280;52495;52.208;5.158;2022-10-14T07:39:48;101125.91;;;12.69;100.00
65758;BME280;52495;52.208;5.158;2022-10-14T07:42:14;101130.09;;;12.73;100.00
65758;BME280;52495;52.208;5.158;2022-10-14T07:44:42;101127.44;;;12.77;100.00
65758;BME280;52495;52.208;5.158;2022-10-14T07:47:10;101128.25;;;12.80;100.00
65758;BME280;52495;52.208;5.158;2022-10-14T07:49:38;101121.25;;;12.84;100.00
65758;BME280;52495;52.208;5.158;2022-10-14T07:52:04;101121.19;;;12.87;100.00
65758;BME280;52495;52.208;5.158;2022-10-14T07:54:31;101128.00;;;12.91;100.00
65758;BME280;52495;52.208;5.158;2022-10-14T07:56:58;101118.44;;;12.95;100.00
65758;BME280;52495;52.208;5.158;2022-10-14T07:59:24;101114.84;;;12.99;100.00
65758;BME280;52495;52.208;5.158;2022-10-14T08:01:51;101116.56;;;13.01;100.00
65758;BME280;52495;52.208;5.158;2022-10-14T08:04:18;101120.78;;;13.05;100.00
65758;BME280;52495;52.208;5.158;2022-10-14T08:06:46;101118.97;;;13.09;100.00
65758;BME280;52495;52.208;5.158;2022-10-14T08:09:13;101103.34;;;13.12;100.00
65758;BME280;52495;52.208;5.158;2022-10-14T08:11:40;101106.75;;;13.14;100.00
65758;BME280;52495;52.208;5.158;2022-10-14T08:14:08;101110.13;;;13.18;100.00
65758;BME280;52495;52.208;5.158;2022-10-14T08:16:34;101108.34;;;13.20;100.00
65758;BME280;52495;52.208;5.158;2022-10-14T08:19:02;101106.47;;;13.25;100.00
65758;BME280;52495;52.208;5.158;2022-10-14T08:21:30;101107.28;;;13.29;100.00
65758;BME280;52495;52.208;5.158;2022-10-14T08:23:58;101105.50;;;13.31;100.00
65758;BME280;52495;52.208;5.158;2022-10-14T08:26:26;101103.66;;;13.34;100.00
65758;BME280;52495;52.208;5.158;2022-10-14T08:28:53;101101.91;;;13.36;100.00
65758;BME280;52495;52.208;5.158;2022-10-14T08:31:20;101100.09;;;13.40;100.00
65758;BME280;52495;52.208;5.158;2022-10-14T08:33:46;101097.38;;;13.45;100.00
65758;BME280;52495;52.208;5.158;2022-10-14T08:36:13;101099.97;;;13.46;100.00
65758;BME280;52495;52.208;5.158;2022-10-14T08:38:40;101098.13;;;13.50;100.00
65758;BME280;52495;52.208;5.158;2022-10-14T08:41:20;101100.66;;;13.53;100.00
65758;BME280;52495;52.208;5.158;2022-10-14T08:43:51;101103.13;;;13.58;100.00
65758;BME280;52495;52.208;5.158;2022-10-14T08:46:20;101104.88;;;13.57;100.00
65758;BME280;52495;52.208;5.158;2022-10-14T08:48:49;101106.53;;;13.60;100.00
65758;BME280;52495;52.208;5.158;2022-10-14T08:51:16;101105.59;;;13.62;100.00
65758;BME280;52495;52.208;5.158;2022-10-14T08:53:45;101102.09;;;13.65;100.00
65758;BME280;52495;52.208;5.158;2022-10-14T08:56:15;101097.72;;;13.65;100.00
65758;BME280;52495;52.208;5.158;2022-10-14T08:58:44;101098.53;;;13.68;100.00
65758;BME280;52495;52.208;5.158;2022-10-14T09:01:13;101093.22;;;13.72;100.00
65758;BME280;52495;52.208;5.158;2022-10-14T09:03:40;101089.72;;;13.75;100.00
65758;BME280;52495;52.208;5.158;2022-10-14T09:06:09;101087.06;;;13.76;100.00
65758;BME280;52495;52.208;5.158;2022-10-14T09:08:38;101088.78;;;13.77;100.00
65758;BME280;52495;52.208;5.158;2022-10-14T09:11:06;101093.91;;;13.79;100.00
65758;BME280;52495;52.208;5.158;2022-10-14T09:13:37;101086.06;;;13.82;100.00
65758;BME280;52495;52.208;5.158;2022-10-14T09:16:05;101087.75;;;13.83;100.00
65758;BME280;52495;52.208;5.158;2022-10-14T09:18:35;101090.22;;;13.88;100.00
65758;BME280;52495;52.208;5.158;2022-10-14T09:21:02;101086.72;;;13.89;100.00
65758;BME280;52495;52.208;5.158;2022-10-14T09:23:38;101083.16;;;13.93;100.00
65758;BME280;52495;52.208;5.158;2022-10-14T09:26:05;101080.50;;;13.96;100.00
65758;BME280;52495;52.208;5.158;2022-10-14T09:28:35;101075.25;;;13.98;100.00
65758;BME280;52495;52.208;5.158;2022-10-14T09:31:04;101076.00;;;14.01;100.00
65758;BME280;52495;52.208;5.158;2022-10-14T09:33:31;101074.22;;;14.03;100.00
65758;BME280;52495;52.208;5.158;2022-10-14T09:36:03;101069.91;;;14.04;100.00
65758;BME280;52495;52.208;5.158;2022-10-14T09:38:30;101065.47;;;14.07;100.00
65758;BME280;52495;52.208;5.158;2022-10-14T09:40:57;101064.50;;;14.10;100.00
65758;BME280;52495;52.208;5.158;2022-10-14T09:43:24;101071.38;;;14.13;100.00
65758;BME280;52495;52.208;5.158;2022-10-14T09:45:52;101066.09;;;14.16;100.00
65758;BME280;52495;52.208;5.158;2022-10-14T09:48:27;101060.03;;;14.17;100.00
65758;BME280;52495;52.208;5.158;2022-10-14T09:50:55;101062.56;;;14.18;100.00
65758;BME280;52495;52.208;5.158;2022-10-14T09:53:25;101064.19;;;14.22;100.00
65758;BME280;52495;52.208;5.158;2022-10-14T09:55:53;101064.03;;;14.27;100.00
65758;BME280;52495;52.208;5.158;2022-10-14T09:58:21;101051.81;;;14.31;100.00
65758;BME280;52495;52.208;5.158;2022-10-14T10:00:53;101052.59;;;14.34;100.00
65758;BME280;52495;52.208;5.158;2022-10-14T10:03:26;101042.97;;;14.36;100.00
65758;BME280;52495;52.208;5.158;2022-10-14T10:06:04;101046.38;;;14.38;100.00
65758;BME280;52495;52.208;5.158;2022-10-14T10:08:31;101050.53;;;14.44;100.00
65758;BME280;52495;52.208;5.158;2022-10-14T10:10:59;101046.06;;;14.49;100.00
65758;BME280;52495;52.208;5.158;2022-10-14T10:13:33;101039.88;;;14.53;100.00
65758;BME280;52495;52.208;5.158;2022-10-14T10:16:01;101051.00;;;14.59;100.00
65758;BME280;52495;52.208;5.158;2022-10-14T10:18:29;101039.66;;;14.61;100.00
65758;BME280;52495;52.208;5.158;2022-10-14T10:20:59;101044.78;;;14.63;100.00
65758;BME280;52495;52.208;5.158;2022-10-14T10:23:26;101041.19;;;14.67;100.00
65758;BME280;52495;52.208;5.158;2022-10-14T10:25:54;101044.56;;;14.70;100.00
65758;BME280;52495;52.208;5.158;2022-10-14T10:28:25;101041.06;;;14.73;100.00
65758;BME280;52495;52.208;5.158;2022-10-14T10:30:58;101043.56;;;14.76;100.00
65758;BME280;52495;52.208;5.158;2022-10-14T10:33:33;101034.00;;;14.77;100.00
65758;BME280;52495;52.208;5.158;2022-10-14T10:36:08;101039.25;;;14.75;100.00
65758;BME280;52495;52.208;5.158;2022-10-14T10:38:42;101035.75;;;14.76;100.00
65758;BME280;52495;52.208;5.158;2022-10-14T10:41:17;101033.19;;;14.75;100.00
65758;BME280;52495;52.208;5.158;2022-10-14T10:46:35;101023.53;;;14.78;100.00
65758;BME280;52495;52.208;5.158;2022-10-14T10:49:13;101027.81;;;14.81;100.00
65758;BME280;52495;52.208;5.158;2022-10-14T10:51:44;101025.16;;;14.82;100.00
65758;BME280;52495;52.208;5.158;2022-10-14T10:54:19;101020.75;;;14.84;100.00
65758;BME280;52495;52.208;5.158;2022-10-14T10:56:51;101016.44;;;14.85;100.00
65758;BME280;52495;52.208;5.158;2022-10-14T10:59:32;101020.69;;;14.86;100.00
65758;BME280;52495;52.208;5.158;2022-10-14T11:02:18;101006.81;;;14.87;100.00
65758;BME280;52495;52.208;5.158;2022-10-14T11:04:53;101005.72;;;14.94;100.00
65758;BME280;52495;52.208;5.158;2022-10-14T11:07:26;101008.31;;;14.94;100.00
65758;BME280;52495;52.208;5.158;2022-10-14T11:10:27;101005.72;;;14.94;100.00
65758;BME280;52495;52.208;5.158;2022-10-14T11:13:16;101003.06;;;14.96;100.00
65758;BME280;52495;52.208;5.158;2022-10-14T11:15:47;101000.41;;;14.97;100.00
65758;BME280;52495;52.208;5.158;2022-10-14T11:18:18;100999.53;;;14.98;100.00
65758;BME280;52495;52.208;5.158;2022-10-14T11:20:53;100994.25;;;15.00;100.00
65758;BME280;52495;52.208;5.158;2022-10-14T11:23:35;101001.13;;;15.02;100.00
65758;BME280;52495;52.208;5.158;2022-10-14T11:26:04;100994.22;;;15.01;100.00
65758;BME280;52495;52.208;5.158;2022-10-14T11:28:35;100981.25;;;15.00;100.00
65758;BME280;52495;52.208;5.158;2022-10-14T11:31:07;100976.84;;;15.02;100.00
65758;BME280;52495;52.208;5.158;2022-10-14T11:33:39;100969.84;;;15.04;100.00
65758;BME280;52495;52.208;5.158;2022-10-14T11:36:15;100972.41;;;15.06;100.00
65758;BME280;52495;52.208;5.158;2022-10-14T11:38:58;100971.56;;;15.05;100.00
65758;BME280;52495;52.208;5.158;2022-10-14T11:41:30;100958.72;;;15.00;100.00
65758;BME280;52495;52.208;5.158;2022-10-14T11:44:02;100965.63;;;15.01;100.00
65758;BME280;52495;52.208;5.158;2022-10-14T11:46:33;100963.03;;;15.01;100.00
65758;BME280;52495;52.208;5.158;2022-10-14T11:49:03;100961.19;;;15.03;100.00
65758;BME280;52495;52.208;5.158;2022-10-14T11:51:36;100955.09;;;15.05;100.00
65758;BME280;52495;52.208;5.158;2022-10-14T11:54:07;100949.00;;;15.06;100.00
65758;BME280;52495;52.208;5.158;2022-10-14T11:56:38;100949.06;;;15.04;100.00
65758;BME280;52495;52.208;5.158;2022-10-14T11:59:12;100955.06;;;15.06;100.00
65758;BME280;52495;52.208;5.158;2022-10-14T12:01:42;100945.50;;;15.07;100.00
65758;BME280;52495;52.208;5.158;2022-10-14T12:04:13;100942.88;;;15.07;100.00
65758;BME280;52495;52.208;5.158;2022-10-14T12:06:44;100932.50;;;15.07;100.00
65758;BME280;52495;52.208;5.158;2022-10-14T12:09:13;100931.56;;;15.09;100.00
65758;BME280;52495;52.208;5.158;2022-10-14T12:11:45;100940.19;;;15.10;100.00
65758;BME280;52495;52.208;5.158;2022-10-14T12:14:15;100933.19;;;15.12;100.00
65758;BME280;52495;52.208;5.158;2022-10-14T12:16:45;100928.78;;;15.14;100.00
65758;BME280;52495;52.208;5.158;2022-10-14T12:19:13;100921.78;;;15.16;100.00
65758;BME280;52495;52.208;5.158;2022-10-14T12:21:45;100918.28;;;15.17;100.00
65758;BME280;52495;52.208;5.158;2022-10-14T12:24:13;100919.00;;;15.21;100.00
65758;BME280;52495;52.208;5.158;2022-10-14T12:26:48;100925.81;;;15.25;100.00
65758;BME280;52495;52.208;5.158;2022-10-14T12:29:16;100917.94;;;15.26;100.00
65758;BME280;52495;52.208;5.158;2022-10-14T12:31:47;100910.88;;;15.30;100.00
65758;BME280;52495;52.208;5.158;2022-10-14T12:34:15;100915.97;;;15.33;100.00
65758;BME280;52495;52.208;5.158;2022-10-14T12:36:45;100906.44;;;15.33;100.00
65758;BME280;52495;52.208;5.158;2022-10-14T12:39:21;100904.72;;;15.32;100.00
65758;BME280;52495;52.208;5.158;2022-10-14T12:41:49;100907.31;;;15.32;100.00
65758;BME280;52495;52.208;5.158;2022-10-14T12:44:18;100903.03;;;15.31;100.00
65758;BME280;52495;52.208;5.158;2022-10-14T12:46:50;100899.53;;;15.32;100.00
65758;BME280;52495;52.208;5.158;2022-10-14T12:49:18;100897.84;;;15.30;100.00
65758;BME280;52495;52.208;5.158;2022-10-14T12:51:52;100899.56;;;15.31;100.00
65758;BME280;52495;52.208;5.158;2022-10-14T12:54:20;100884.81;;;15.31;100.00
65758;BME280;52495;52.208;5.158;2022-10-14T12:56:54;100899.53;;;15.32;100.00
65758;BME280;52495;52.208;5.158;2022-10-14T12:59:23;100890.03;;;15.31;100.00
65758;BME280;52495;52.208;5.158;2022-10-14T13:01:53;100893.41;;;15.33;100.00
65758;BME280;52495;52.208;5.158;2022-10-14T13:04:19;100895.13;;;15.35;100.00
65758;BME280;52495;52.208;5.158;2022-10-14T13:09:36;100896.41;;;15.46;100.00